sensor_id;sensor_type;location;lat;lon;timestamp;temperature;humidity
33109;HTU21D;19481;51.118;6.940;2022-08-21T00:00:37;16.15;59.80
33109;HTU21D;19481;51.118;6.940;2022-08-21T00:05:46;16.17;59.81
33109;HTU21D;19481;51.118;6.940;2022-08-21T00:10:48;16.07;60.06
33109;HTU21D;19481;51.118;6.940;2022-08-21T00:15:51;16.02;60.22
33109;HTU21D;19481;51.118;6.940;2022-08-21T00:20:53;15.95;60.29
33109;HTU21D;19481;51.118;6.940;2022-08-21T00:25:54;15.83;60.60
33109;HTU21D;19481;51.118;6.940;2022-08-21T00:30:57;15.77;60.81
33109;HTU21D;19481;51.118;6.940;2022-08-21T00:36:00;15.76;60.60
33109;HTU21D;19481;51.118;6.940;2022-08-21T00:41:05;15.76;60.57
33109;HTU21D;19481;51.118;6.940;2022-08-21T00:46:08;15.76;60.59
33109;HTU21D;19481;51.118;6.940;2022-08-21T00:51:12;15.82;60.65
33109;HTU21D;19481;51.118;6.940;2022-08-21T00:56:14;15.80;60.64
33109;HTU21D;19481;51.118;6.940;2022-08-21T01:01:18;15.78;60.68
33109;HTU21D;19481;51.118;6.940;2022-08-21T01:06:20;15.75;60.80
33109;HTU21D;19481;51.118;6.940;2022-08-21T01:11:21;15.66;61.05
33109;HTU21D;19481;51.118;6.940;2022-08-21T01:16:24;15.78;60.72
33109;HTU21D;19481;51.118;6.940;2022-08-21T01:21:28;15.83;60.64
33109;HTU21D;19481;51.118;6.940;2022-08-21T01:26:31;15.82;60.82
33109;HTU21D;19481;51.118;6.940;2022-08-21T01:31:34;15.85;60.98
33109;HTU21D;19481;51.118;6.940;2022-08-21T01:36:38;15.85;60.95
33109;HTU21D;19481;51.118;6.940;2022-08-21T01:41:40;15.73;61.44
33109;HTU21D;19481;51.118;6.940;2022-08-21T01:46:42;15.63;61.65
33109;HTU21D;19481;51.118;6.940;2022-08-21T01:51:45;15.54;61.96
33109;HTU21D;19481;51.118;6.940;2022-08-21T01:56:51;15.52;61.87
33109;HTU21D;19481;51.118;6.940;2022-08-21T02:01:53;15.49;61.82
33109;HTU21D;19481;51.118;6.940;2022-08-21T02:06:57;15.44;62.47
33109;HTU21D;19481;51.118;6.940;2022-08-21T02:11:58;15.39;62.22
33109;HTU21D;19481;51.118;6.940;2022-08-21T02:17:00;15.31;62.45
33109;HTU21D;19481;51.118;6.940;2022-08-21T02:22:04;15.26;62.60
33109;HTU21D;19481;51.118;6.940;2022-08-21T02:27:05;15.21;62.72
33109;HTU21D;19481;51.118;6.940;2022-08-21T02:32:07;15.19;62.79
33109;HTU21D;19481;51.118;6.940;2022-08-21T02:37:11;15.17;62.88
33109;HTU21D;19481;51.118;6.940;2022-08-21T02:42:13;15.12;62.79
33109;HTU21D;19481;51.118;6.940;2022-08-21T02:47:15;15.12;62.79
33109;HTU21D;19481;51.118;6.940;2022-08-21T02:52:18;15.17;62.68
33109;HTU21D;19481;51.118;6.940;2022-08-21T02:57:19;15.16;62.76
33109;HTU21D;19481;51.118;6.940;2022-08-21T03:02:21;15.12;62.91
33109;HTU21D;19481;51.118;6.940;2022-08-21T03:07:24;15.15;62.82
33109;HTU21D;19481;51.118;6.940;2022-08-21T03:12:26;15.27;62.72
33109;HTU21D;19481;51.118;6.940;2022-08-21T03:17:27;15.30;62.66
33109;HTU21D;19481;51.118;6.940;2022-08-21T03:22:31;15.29;63.04
33109;HTU21D;19481;51.118;6.940;2022-08-21T03:27:32;15.25;63.02
33109;HTU21D;19481;51.118;6.940;2022-08-21T03:32:34;15.18;63.23
33109;HTU21D;19481;51.118;6.940;2022-08-21T03:37:38;15.14;63.35
33109;HTU21D;19481;51.118;6.940;2022-08-21T03:42:40;15.09;63.50
33109;HTU21D;19481;51.118;6.940;2022-08-21T03:47:51;14.95;64.17
33109;HTU21D;19481;51.118;6.940;2022-08-21T03:52:54;14.88;64.05
33109;HTU21D;19481;51.118;6.940;2022-08-21T03:57:56;14.85;64.02
33109;HTU21D;19481;51.118;6.940;2022-08-21T04:02:57;14.78;64.18
33109;HTU21D;19481;51.118;6.940;2022-08-21T04:08:04;14.78;64.24
33109;HTU21D;19481;51.118;6.940;2022-08-21T04:13:07;14.81;64.14
33109;HTU21D;19481;51.118;6.940;2022-08-21T04:18:09;14.69;64.43
33109;HTU21D;19481;51.118;6.940;2022-08-21T04:23:12;14.69;64.87
33109;HTU21D;19481;51.118;6.940;2022-08-21T04:28:13;14.66;64.54
33109;HTU21D;19481;51.118;6.940;2022-08-21T04:33:16;14.63;64.52
33109;HTU21D;19481;51.118;6.940;2022-08-21T04:38:19;14.60;64.58
33109;HTU21D;19481;51.118;6.940;2022-08-21T04:43:21;14.57;64.71
33109;HTU21D;19481;51.118;6.940;2022-08-21T04:48:23;14.68;64.38
33109;HTU21D;19481;51.118;6.940;2022-08-21T04:53:31;14.65;64.61
33109;HTU21D;19481;51.118;6.940;2022-08-21T04:58:35;14.65;64.64
33109;HTU21D;19481;51.118;6.940;2022-08-21T05:03:38;14.67;64.68
33109;HTU21D;19481;51.118;6.940;2022-08-21T05:08:46;14.82;64.32
33109;HTU21D;19481;51.118;6.940;2022-08-21T05:13:49;14.96;64.01
33109;HTU21D;19481;51.118;6.940;2022-08-21T05:18:51;15.03;63.97
33109;HTU21D;19481;51.118;6.940;2022-08-21T05:23:54;15.12;63.70
33109;HTU21D;19481;51.118;6.940;2022-08-21T05:28:55;15.18;63.76
33109;HTU21D;19481;51.118;6.940;2022-08-21T05:33:57;15.23;63.85
33109;HTU21D;19481;51.118;6.940;2022-08-21T05:39:00;15.34;63.43
33109;HTU21D;19481;51.118;6.940;2022-08-21T05:44:02;15.45;63.21
33109;HTU21D;19481;51.118;6.940;2022-08-21T05:49:04;15.57;63.06
33109;HTU21D;19481;51.118;6.940;2022-08-21T05:54:07;15.75;63.30
33109;HTU21D;19481;51.118;6.940;2022-08-21T05:59:09;16.04;62.12
33109;HTU21D;19481;51.118;6.940;2022-08-21T06:04:11;16.10;62.24
33109;HTU21D;19481;51.118;6.940;2022-08-21T06:09:14;16.21;62.44
33109;HTU21D;19481;51.118;6.940;2022-08-21T06:14:16;18.62;56.62
33109;HTU21D;19481;51.118;6.940;2022-08-21T06:19:17;20.51;54.04
33109;HTU21D;19481;51.118;6.940;2022-08-21T06:24:20;22.13;52.12
33109;HTU21D;19481;51.118;6.940;2022-08-21T06:29:23;23.27;51.95
33109;HTU21D;19481;51.118;6.940;2022-08-21T06:34:25;24.58;50.59
33109;HTU21D;19481;51.118;6.940;2022-08-21T06:39:28;24.41;51.27
33109;HTU21D;19481;51.118;6.940;2022-08-21T06:44:30;25.22;51.94
33109;HTU21D;19481;51.118;6.940;2022-08-21T06:49:32;25.95;51.23
33109;HTU21D;19481;51.118;6.940;2022-08-21T06:54:35;26.25;50.50
33109;HTU21D;19481;51.118;6.940;2022-08-21T06:59:36;27.42;49.20
33109;HTU21D;19481;51.118;6.940;2022-08-21T07:04:38;28.85;46.94
33109;HTU21D;19481;51.118;6.940;2022-08-21T07:09:41;28.03;49.49
33109;HTU21D;19481;51.118;6.940;2022-08-21T07:14:42;27.00;52.30
33109;HTU21D;19481;51.118;6.940;2022-08-21T07:19:44;28.43;47.58
33109;HTU21D;19481;51.118;6.940;2022-08-21T07:24:47;28.16;48.63
33109;HTU21D;19481;51.118;6.940;2022-08-21T07:29:49;28.49;48.15
33109;HTU21D;19481;51.118;6.940;2022-08-21T07:34:50;28.85;46.86
33109;HTU21D;19481;51.118;6.940;2022-08-21T07:39:53;29.45;45.00
33109;HTU21D;19481;51.118;6.940;2022-08-21T07:44:55;30.25;43.56
33109;HTU21D;19481;51.118;6.940;2022-08-21T07:49:57;30.24;43.70
33109;HTU21D;19481;51.118;6.940;2022-08-21T07:55:00;29.37;45.09
33109;HTU21D;19481;51.118;6.940;2022-08-21T08:00:03;30.77;41.45
33109;HTU21D;19481;51.118;6.940;2022-08-21T08:05:07;31.24;40.69
33109;HTU21D;19481;51.118;6.940;2022-08-21T08:10:11;31.16;40.80
33109;HTU21D;19481;51.118;6.940;2022-08-21T08:15:15;30.80;41.28
33109;HTU21D;19481;51.118;6.940;2022-08-21T08:20:18;31.04;40.37
33109;HTU21D;19481;51.118;6.940;2022-08-21T08:25:22;31.69;37.72
33109;HTU21D;19481;51.118;6.940;2022-08-21T08:30:24;31.36;39.40
33109;HTU21D;19481;51.118;6.940;2022-08-21T08:35:25;29.82;42.45
33109;HTU21D;19481;51.118;6.940;2022-08-21T08:40:36;29.63;35.65
33109;HTU21D;19481;51.118;6.940;2022-08-21T08:45:43;29.68;38.67
33109;HTU21D;19481;51.118;6.940;2022-08-21T08:50:49;31.68;34.69
33109;HTU21D;19481;51.118;6.940;2022-08-21T08:55:55;30.48;37.53
33109;HTU21D;19481;51.118;6.940;2022-08-21T09:00:58;29.17;40.07
33109;HTU21D;19481;51.118;6.940;2022-08-21T09:06:05;27.93;40.22
33109;HTU21D;19481;51.118;6.940;2022-08-21T09:11:20;28.47;30.90
33109;HTU21D;19481;51.118;6.940;2022-08-21T09:16:33;27.86;37.21
33109;HTU21D;19481;51.118;6.940;2022-08-21T09:21:44;26.60;37.35
33109;HTU21D;19481;51.118;6.940;2022-08-21T09:27:08;26.48;33.19
33109;HTU21D;19481;51.118;6.940;2022-08-21T09:32:15;27.73;33.94
33109;HTU21D;19481;51.118;6.940;2022-08-21T09:37:17;28.54;32.93
33109;HTU21D;19481;51.118;6.940;2022-08-21T09:42:26;28.46;31.77
33109;HTU21D;19481;51.118;6.940;2022-08-21T09:47:28;28.49;33.30
33109;HTU21D;19481;51.118;6.940;2022-08-21T09:52:30;29.18;31.90
33109;HTU21D;19481;51.118;6.940;2022-08-21T09:57:33;28.75;32.21
33109;HTU21D;19481;51.118;6.940;2022-08-21T10:02:46;29.28;31.85
33109;HTU21D;19481;51.118;6.940;2022-08-21T10:07:48;29.41;31.77
33109;HTU21D;19481;51.118;6.940;2022-08-21T10:12:58;29.04;30.22
33109;HTU21D;19481;51.118;6.940;2022-08-21T10:18:06;29.62;30.16
33109;HTU21D;19481;51.118;6.940;2022-08-21T10:23:32;29.46;28.44
33109;HTU21D;19481;51.118;6.940;2022-08-21T10:28:45;29.35;29.56
33109;HTU21D;19481;51.118;6.940;2022-08-21T10:33:55;29.43;31.31
33109;HTU21D;19481;51.118;6.940;2022-08-21T10:39:10;29.43;31.50
33109;HTU21D;19481;51.118;6.940;2022-08-21T10:44:23;29.12;31.03
33109;HTU21D;19481;51.118;6.940;2022-08-21T10:49:35;28.79;28.19
33109;HTU21D;19481;51.118;6.940;2022-08-21T10:54:45;28.71;31.88
33109;HTU21D;19481;51.118;6.940;2022-08-21T10:59:57;28.71;31.53
33109;HTU21D;19481;51.118;6.940;2022-08-21T11:05:05;29.00;29.86
33109;HTU21D;19481;51.118;6.940;2022-08-21T11:10:14;28.58;28.28
33109;HTU21D;19481;51.118;6.940;2022-08-21T11:15:28;28.95;28.90
33109;HTU21D;19481;51.118;6.940;2022-08-21T11:20:42;29.50;26.79
33109;HTU21D;19481;51.118;6.940;2022-08-21T11:25:49;28.98;30.13
33109;HTU21D;19481;51.118;6.940;2022-08-21T11:31:00;29.13;28.21
33109;HTU21D;19481;51.118;6.940;2022-08-21T11:36:08;30.08;28.62
33109;HTU21D;19481;51.118;6.940;2022-08-21T11:41:21;29.36;28.19
33109;HTU21D;19481;51.118;6.940;2022-08-21T11:46:33;28.71;30.04
33109;HTU21D;19481;51.118;6.940;2022-08-21T11:51:41;28.85;30.71
33109;HTU21D;19481;51.118;6.940;2022-08-21T11:56:49;29.27;29.80
33109;HTU21D;19481;51.118;6.940;2022-08-21T12:01:53;28.90;30.60
33109;HTU21D;19481;51.118;6.940;2022-08-21T12:06:56;29.27;30.60
33109;HTU21D;19481;51.118;6.940;2022-08-21T12:12:05;29.95;28.13
33109;HTU21D;19481;51.118;6.940;2022-08-21T12:17:18;30.32;26.37
33109;HTU21D;19481;51.118;6.940;2022-08-21T12:22:20;30.77;28.42
33109;HTU21D;19481;51.118;6.940;2022-08-21T12:27:27;31.07;27.64
33109;HTU21D;19481;51.118;6.940;2022-08-21T12:32:44;31.30;23.45
33109;HTU21D;19481;51.118;6.940;2022-08-21T12:37:48;31.39;27.56
33109;HTU21D;19481;51.118;6.940;2022-08-21T12:42:54;31.38;26.95
33109;HTU21D;19481;51.118;6.940;2022-08-21T12:48:02;30.75;25.65
33109;HTU21D;19481;51.118;6.940;2022-08-21T12:53:09;30.95;27.86
33109;HTU21D;19481;51.118;6.940;2022-08-21T12:58:18;30.74;24.33
33109;HTU21D;19481;51.118;6.940;2022-08-21T13:03:22;30.85;27.37
33109;HTU21D;19481;51.118;6.940;2022-08-21T13:08:26;30.62;27.03
33109;HTU21D;19481;51.118;6.940;2022-08-21T13:13:29;30.69;28.09
33109;HTU21D;19481;51.118;6.940;2022-08-21T13:18:40;30.15;28.65
33109;HTU21D;19481;51.118;6.940;2022-08-21T13:23:52;30.78;27.58
33109;HTU21D;19481;51.118;6.940;2022-08-21T13:29:06;31.43;21.46
33109;HTU21D;19481;51.118;6.940;2022-08-21T13:34:10;31.26;26.44
33109;HTU21D;19481;51.118;6.940;2022-08-21T13:39:16;31.04;22.65
33109;HTU21D;19481;51.118;6.940;2022-08-21T13:44:20;30.08;28.16
33109;HTU21D;19481;51.118;6.940;2022-08-21T13:49:31;30.35;25.38
33109;HTU21D;19481;51.118;6.940;2022-08-21T13:54:35;30.46;26.84
33109;HTU21D;19481;51.118;6.940;2022-08-21T13:59:37;30.28;27.02
33109;HTU21D;19481;51.118;6.940;2022-08-21T14:04:44;30.45;25.39
33109;HTU21D;19481;51.118;6.940;2022-08-21T14:09:50;30.15;27.04
33109;HTU21D;19481;51.118;6.940;2022-08-21T14:14:53;30.19;25.65
33109;HTU21D;19481;51.118;6.940;2022-08-21T14:19:57;29.93;27.40
33109;HTU21D;19481;51.118;6.940;2022-08-21T14:25:01;29.70;27.81
33109;HTU21D;19481;51.118;6.940;2022-08-21T14:30:12;29.91;24.60
33109;HTU21D;19481;51.118;6.940;2022-08-21T14:35:19;29.85;27.28
33109;HTU21D;19481;51.118;6.940;2022-08-21T14:40:22;29.80;27.19
33109;HTU21D;19481;51.118;6.940;2022-08-21T14:45:27;29.31;27.74
33109;HTU21D;19481;51.118;6.940;2022-08-21T14:50:31;29.50;27.12
33109;HTU21D;19481;51.118;6.940;2022-08-21T14:55:32;29.37;27.31
33109;HTU21D;19481;51.118;6.940;2022-08-21T15:00:55;29.29;27.35
33109;HTU21D;19481;51.118;6.940;2022-08-21T15:06:02;29.08;27.26
33109;HTU21D;19481;51.118;6.940;2022-08-21T15:11:05;28.90;27.74
33109;HTU21D;19481;51.118;6.940;2022-08-21T15:16:08;28.85;27.55
33109;HTU21D;19481;51.118;6.940;2022-08-21T15:21:12;28.69;27.76
33109;HTU21D;19481;51.118;6.940;2022-08-21T15:26:13;28.70;27.87
33109;HTU21D;19481;51.118;6.940;2022-08-21T15:31:15;28.59;28.07
33109;HTU21D;19481;51.118;6.940;2022-08-21T15:36:18;28.58;27.86
33109;HTU21D;19481;51.118;6.940;2022-08-21T15:41:20;28.06;28.74
33109;HTU21D;19481;51.118;6.940;2022-08-21T15:46:21;28.17;28.49
33109;HTU21D;19481;51.118;6.940;2022-08-21T15:51:24;27.95;28.81
33109;HTU21D;19481;51.118;6.940;2022-08-21T15:56:32;27.55;29.45
33109;HTU21D;19481;51.118;6.940;2022-08-21T16:01:35;27.38;29.61
33109;HTU21D;19481;51.118;6.940;2022-08-21T16:06:38;27.75;28.84
33109;HTU21D;19481;51.118;6.940;2022-08-21T16:11:40;27.65;29.18
33109;HTU21D;19481;51.118;6.940;2022-08-21T16:16:42;27.37;29.61
33109;HTU21D;19481;51.118;6.940;2022-08-21T16:21:45;27.31;29.58
33109;HTU21D;19481;51.118;6.940;2022-08-21T16:26:48;27.09;29.99
33109;HTU21D;19481;51.118;6.940;2022-08-21T16:31:50;27.05;29.95
33109;HTU21D;19481;51.118;6.940;2022-08-21T16:36:53;26.98;30.01
33109;HTU21D;19481;51.118;6.940;2022-08-21T16:41:55;26.82;30.32
33109;HTU21D;19481;51.118;6.940;2022-08-21T16:46:57;26.72;30.45
33109;HTU21D;19481;51.118;6.940;2022-08-21T16:52:00;26.64;30.51
33109;HTU21D;19481;51.118;6.940;2022-08-21T16:57:01;26.52;30.58
33109;HTU21D;19481;51.118;6.940;2022-08-21T17:02:03;26.35;30.82
33109;HTU21D;19481;51.118;6.940;2022-08-21T17:07:06;26.41;30.62
33109;HTU21D;19481;51.118;6.940;2022-08-21T17:12:08;26.22;30.82
33109;HTU21D;19481;51.118;6.940;2022-08-21T17:17:10;26.25;30.57
33109;HTU21D;19481;51.118;6.940;2022-08-21T17:22:13;26.26;30.38
33109;HTU21D;19481;51.118;6.940;2022-08-21T17:27:16;26.11;30.72
33109;HTU21D;19481;51.118;6.940;2022-08-21T17:32:18;25.90;31.22
33109;HTU21D;19481;51.118;6.940;2022-08-21T17:37:21;25.62;31.48
33109;HTU21D;19481;51.118;6.940;2022-08-21T17:42:23;25.48;31.56
33109;HTU21D;19481;51.118;6.940;2022-08-21T17:47:25;25.35;31.66
33109;HTU21D;19481;51.118;6.940;2022-08-21T17:52:28;25.17;31.85
33109;HTU21D;19481;51.118;6.940;2022-08-21T17:57:33;24.92;32.19
33109;HTU21D;19481;51.118;6.940;2022-08-21T18:02:35;24.59;32.74
33109;HTU21D;19481;51.118;6.940;2022-08-21T18:07:38;24.43;32.88
33109;HTU21D;19481;51.118;6.940;2022-08-21T18:12:42;24.10;33.46
33109;HTU21D;19481;51.118;6.940;2022-08-21T18:17:49;23.88;33.82
33109;HTU21D;19481;51.118;6.940;2022-08-21T18:22:53;23.64;34.10
33109;HTU21D;19481;51.118;6.940;2022-08-21T18:27:55;23.45;34.41
33109;HTU21D;19481;51.118;6.940;2022-08-21T18:32:56;23.31;34.65
33109;HTU21D;19481;51.118;6.940;2022-08-21T18:37:59;23.02;35.21
33109;HTU21D;19481;51.118;6.940;2022-08-21T18:43:02;23.00;35.13
33109;HTU21D;19481;51.118;6.940;2022-08-21T18:48:08;22.81;35.59
33109;HTU21D;19481;51.118;6.940;2022-08-21T18:53:13;22.75;35.63
33109;HTU21D;19481;51.118;6.940;2022-08-21T18:58:15;22.56;35.96
33109;HTU21D;19481;51.118;6.940;2022-08-21T19:03:20;22.41;36.34
33109;HTU21D;19481;51.118;6.940;2022-08-21T19:08:23;22.32;36.48
33109;HTU21D;19481;51.118;6.940;2022-08-21T19:13:27;22.19;36.74
33109;HTU21D;19481;51.118;6.940;2022-08-21T19:18:31;22.17;36.80
33109;HTU21D;19481;51.118;6.940;2022-08-21T19:23:36;22.06;37.06
33109;HTU21D;19481;51.118;6.940;2022-08-21T19:28:42;22.05;37.11
33109;HTU21D;19481;51.118;6.940;2022-08-21T19:33:47;21.95;37.34
33109;HTU21D;19481;51.118;6.940;2022-08-21T19:38:51;21.84;37.60
33109;HTU21D;19481;51.118;6.940;2022-08-21T19:43:56;21.80;37.69
33109;HTU21D;19481;51.118;6.940;2022-08-21T19:48:59;21.75;37.76
33109;HTU21D;19481;51.118;6.940;2022-08-21T19:54:02;21.57;38.24
33109;HTU21D;19481;51.118;6.940;2022-08-21T19:59:05;21.53;38.32
33109;HTU21D;19481;51.118;6.940;2022-08-21T20:04:06;21.63;38.06
33109;HTU21D;19481;51.118;6.940;2022-08-21T20:09:10;21.49;38.59
33109;HTU21D;19481;51.118;6.940;2022-08-21T20:14:14;21.44;38.82
33109;HTU21D;19481;51.118;6.940;2022-08-21T20:19:17;21.46;38.85
33109;HTU21D;19481;51.118;6.940;2022-08-21T20:24:20;21.40;39.14
33109;HTU21D;19481;51.118;6.940;2022-08-21T20:29:21;21.27;39.52
33109;HTU21D;19481;51.118;6.940;2022-08-21T20:34:23;21.35;39.39
33109;HTU21D;19481;51.118;6.940;2022-08-21T20:39:27;21.30;39.66
33109;HTU21D;19481;51.118;6.940;2022-08-21T20:44:30;21.19;39.97
33109;HTU21D;19481;51.118;6.940;2022-08-21T20:49:44;21.22;39.95
33109;HTU21D;19481;51.118;6.940;2022-08-21T20:54:51;21.13;40.55
33109;HTU21D;19481;51.118;6.940;2022-08-21T20:59:54;21.02;45.62
33109;HTU21D;19481;51.118;6.940;2022-08-21T21:05:02;21.00;40.66
33109;HTU21D;19481;51.118;6.940;2022-08-21T21:10:11;20.96;41.65
33109;HTU21D;19481;51.118;6.940;2022-08-21T21:15:20;21.00;40.71
33109;HTU21D;19481;51.118;6.940;2022-08-21T21:20:29;20.90;41.34
33109;HTU21D;19481;51.118;6.940;2022-08-21T21:25:37;20.79;41.38
33109;HTU21D;19481;51.118;6.940;2022-08-21T21:30:41;20.68;41.69
33109;HTU21D;19481;51.118;6.940;2022-08-21T21:35:47;20.66;41.89
33109;HTU21D;19481;51.118;6.940;2022-08-21T21:40:59;20.69;42.16
33109;HTU21D;19481;51.118;6.940;2022-08-21T21:46:09;20.59;42.33
33109;HTU21D;19481;51.118;6.940;2022-08-21T21:51:23;20.60;42.26
33109;HTU21D;19481;51.118;6.940;2022-08-21T21:56:33;20.54;42.46
33109;HTU21D;19481;51.118;6.940;2022-08-21T22:01:41;20.35;42.80
33109;HTU21D;19481;51.118;6.940;2022-08-21T22:06:52;20.35;44.13
33109;HTU21D;19481;51.118;6.940;2022-08-21T22:12:02;20.34;43.52
33109;HTU21D;19481;51.118;6.940;2022-08-21T22:17:16;20.29;42.90
33109;HTU21D;19481;51.118;6.940;2022-08-21T22:22:23;20.28;42.81
33109;HTU21D;19481;51.118;6.940;2022-08-21T22:27:29;20.28;42.95
33109;HTU21D;19481;51.118;6.940;2022-08-21T22:32:37;20.25;43.13
33109;HTU21D;19481;51.118;6.940;2022-08-21T22:37:41;20.17;43.22
33109;HTU21D;19481;51.118;6.940;2022-08-21T22:42:56;20.07;44.73
33109;HTU21D;19481;51.118;6.940;2022-08-21T22:48:03;20.02;43.96
33109;HTU21D;19481;51.118;6.940;2022-08-21T22:53:07;19.98;43.84
33109;HTU21D;19481;51.118;6.940;2022-08-21T22:58:18;20.02;43.84
33109;HTU21D;19481;51.118;6.940;2022-08-21T23:03:25;19.95;44.03
33109;HTU21D;19481;51.118;6.940;2022-08-21T23:08:33;19.87;44.23
33109;HTU21D;19481;51.118;6.940;2022-08-21T23:13:42;19.77;44.71
33109;HTU21D;19481;51.118;6.940;2022-08-21T23:18:53;19.62;45.22
33109;HTU21D;19481;51.118;6.940;2022-08-21T23:24:08;19.58;45.38
33109;HTU21D;19481;51.118;6.940;2022-08-21T23:29:24;19.48;45.74
33109;HTU21D;19481;51.118;6.940;2022-08-21T23:34:30;19.42;45.41
33109;HTU21D;19481;51.118;6.940;2022-08-21T23:39:45;19.33;46.15
33109;HTU21D;19481;51.118;6.940;2022-08-21T23:44:58;19.09;46.86
33109;HTU21D;19481;51.118;6.940;2022-08-21T23:50:06;18.95;46.69
33109;HTU21D;19481;51.118;6.940;2022-08-21T23:55:20;18.83;47.79
